createdAt,value
2017-02-05T00:00:00.522Z,92.22
2017-02-05T00:00:26.696Z,92.03
2017-02-05T00:00:52.929Z,92.61
2017-02-05T00:01:19.067Z,93.08
2017-02-05T00:01:45.199Z,93.37
2017-02-05T00:02:11.414Z,93.37
2017-02-05T00:02:37.567Z,93.65
2017-02-05T00:03:03.699Z,93.27
2017-02-05T00:03:29.926Z,93.94
2017-02-05T00:03:56.091Z,94.03
2017-02-05T00:04:22.271Z,94.22
2017-02-05T00:04:48.445Z,94.32
2017-02-05T00:05:14.587Z,94.6
2017-02-05T00:05:40.719Z,94.13
2017-02-05T00:06:06.867Z,94.51
2017-02-05T00:06:33.023Z,94.22
2017-02-05T00:06:59.185Z,93.75
2017-02-05T00:07:25.306Z,93.75
2017-02-05T00:07:51.493Z,94.42
2017-02-05T00:08:17.615Z,94.89
2017-02-05T00:08:43.719Z,94.7
2017-02-05T00:09:09.891Z,95.17
2017-02-05T00:09:36.004Z,94.98
2017-02-05T00:10:02.186Z,95.65
2017-02-05T00:10:28.412Z,95.56
2017-02-05T00:10:54.559Z,95.08
2017-02-05T00:11:20.712Z,94.98
2017-02-05T00:11:46.926Z,95.46
2017-02-05T00:12:13.106Z,95.27
2017-02-05T00:12:39.243Z,95.46
2017-02-05T00:13:05.384Z,95.36
2017-02-05T00:13:31.538Z,95.46
2017-02-05T00:13:57.728Z,95.27
2017-02-05T00:14:23.880Z,95.27
2017-02-05T00:14:50.052Z,94.79
2017-02-05T00:15:16.226Z,95.46
2017-02-05T00:15:42.406Z,95.65
2017-02-05T00:16:08.571Z,95.84
2017-02-05T00:16:34.784Z,95.56
2017-02-05T00:17:00.924Z,95.65
2017-02-05T00:17:27.085Z,96.12
2017-02-05T00:17:53.253Z,96.03
2017-02-05T00:18:19.414Z,95.75
2017-02-05T00:18:45.596Z,95.75
2017-02-05T00:19:11.748Z,96.31
2017-02-05T00:19:37.912Z,96.79
2017-02-05T00:20:04.022Z,96.89
2017-02-05T00:20:30.179Z,96.6
2017-02-05T00:20:56.383Z,96.98
2017-02-05T00:21:22.511Z,96.5
2017-02-05T00:21:48.676Z,96.12
2017-02-05T00:22:14.814Z,96.31
2017-02-05T00:22:40.974Z,95.46
2017-02-05T00:23:07.108Z,95.46
2017-02-05T00:23:33.277Z,95.56
2017-02-05T00:23:59.434Z,95.08
2017-02-05T00:24:25.552Z,95.84
2017-02-05T00:24:51.696Z,95.36
2017-02-05T00:25:17.813Z,95.27
2017-02-05T00:25:43.961Z,94.98
2017-02-05T00:26:10.109Z,95.27
2017-02-05T00:26:36.332Z,95.46
2017-02-05T00:27:02.447Z,95.08
2017-02-05T00:27:28.631Z,95.27
2017-02-05T00:27:54.833Z,95.75
2017-02-05T00:28:20.988Z,94.98
2017-02-05T00:28:47.163Z,95.27
2017-02-05T00:29:13.351Z,95.08
2017-02-05T00:29:39.440Z,95.36
2017-02-05T00:30:05.721Z,95.56
2017-02-05T00:30:31.874Z,95.46
2017-02-05T00:30:58.058Z,95.27
2017-02-05T00:31:24.308Z,95.46
2017-02-05T00:31:50.475Z,95.36
2017-02-05T00:32:16.965Z,95.56
2017-02-05T00:32:43.222Z,95.46
2017-02-05T00:33:09.413Z,95.17
2017-02-05T00:33:35.532Z,95.46
2017-02-05T00:34:01.705Z,95.03
2017-02-05T00:34:27.849Z,95.41
2017-02-05T00:34:54.165Z,95.32
2017-02-05T00:35:20.313Z,95.7
2017-02-05T00:35:46.499Z,95.41
2017-02-05T00:36:12.685Z,95.22
2017-02-05T00:36:38.853Z,95.32
2017-02-05T00:37:04.989Z,95.22
2017-02-05T00:37:31.146Z,95.12
2017-02-05T00:37:57.297Z,95.27
2017-02-05T00:38:23.495Z,95.46
2017-02-05T00:38:49.773Z,95.56
2017-02-05T00:39:15.901Z,95.46
2017-02-05T00:39:42.044Z,95.36
2017-02-05T00:40:08.201Z,95.17
2017-02-05T00:40:34.444Z,94.79
2017-02-05T00:41:00.593Z,94.7
2017-02-05T00:41:26.693Z,94.32
2017-02-05T00:41:52.917Z,94.03
2017-02-05T00:42:19.079Z,94.51
2017-02-05T00:42:45.267Z,94.51
2017-02-05T00:43:11.439Z,94.27
2017-02-05T00:43:37.720Z,94.22
2017-02-05T00:44:03.885Z,94.13
2017-02-05T00:44:30.106Z,94.51
2017-02-05T00:44:56.262Z,94.7
2017-02-05T00:45:22.532Z,94.98
2017-02-05T00:45:48.733Z,94.98
2017-02-05T00:46:14.854Z,94.6
2017-02-05T00:46:41.106Z,93.94
2017-02-05T00:47:07.295Z,94.13
2017-02-05T00:47:33.442Z,93.84
2017-02-05T00:47:59.604Z,93.37
2017-02-05T00:48:25.789Z,93.55
2017-02-05T00:48:51.945Z,93.94
2017-02-05T00:49:18.170Z,93.84
2017-02-05T00:49:44.382Z,93.27
2017-02-05T00:50:10.547Z,93.27
2017-02-05T00:50:36.823Z,93.27
2017-02-05T00:51:03.062Z,93.94
2017-02-05T00:51:29.220Z,94.22
2017-02-05T00:51:55.425Z,94.32
2017-02-05T00:52:21.579Z,93.27
2017-02-05T00:52:47.870Z,93.55
2017-02-05T00:53:14.021Z,93.55
2017-02-05T00:53:40.165Z,93.27
2017-02-05T00:54:06.365Z,93.18
2017-02-05T00:54:32.574Z,93.08
2017-02-05T00:54:58.903Z,93.46
2017-02-05T00:55:25.455Z,93.75
2017-02-05T00:55:52.040Z,93.65
2017-02-05T00:56:18.245Z,93.94
2017-02-05T00:56:44.472Z,93.08
2017-02-05T00:57:11.022Z,93.08
2017-02-05T00:57:37.207Z,92.61
2017-02-05T00:58:03.610Z,92.61
2017-02-05T00:58:29.727Z,92.89
2017-02-05T00:58:55.860Z,93.08
2017-02-05T00:59:22.155Z,92.51
2017-02-05T00:59:48.500Z,92.51
2017-02-05T01:00:14.706Z,92.61
2017-02-05T01:00:40.899Z,92.7
2017-02-05T01:01:07.295Z,92.51
2017-02-05T01:01:33.480Z,92.7
2017-02-05T01:01:59.669Z,92.51
2017-02-05T01:02:25.898Z,92.32
2017-02-05T01:02:52.049Z,92.13
2017-02-05T01:03:18.286Z,92.32
2017-02-05T01:03:44.542Z,92.32
2017-02-05T01:04:10.897Z,92.13
2017-02-05T01:04:37.174Z,92.51
2017-02-05T01:05:03.536Z,92.51
2017-02-05T01:05:29.765Z,92.51
2017-02-05T01:05:55.985Z,92.7
2017-02-05T01:06:22.167Z,92.8
2017-02-05T01:06:48.306Z,92.13
2017-02-05T01:07:14.432Z,92.41
2017-02-05T01:07:40.587Z,92.03
2017-02-05T01:08:06.839Z,92.22
2017-02-05T01:08:32.998Z,92.13
2017-02-05T01:08:59.127Z,92.51
2017-02-05T01:09:25.285Z,91.85
2017-02-05T01:09:51.491Z,91.75
2017-02-05T01:10:17.735Z,91.85
2017-02-05T01:10:43.963Z,92.22
2017-02-05T01:11:10.057Z,92.32
2017-02-05T01:11:36.275Z,91.94
2017-02-05T01:12:02.491Z,92.32
2017-02-05T01:12:28.676Z,91.85
2017-02-05T01:12:54.853Z,92.22
2017-02-05T01:13:21.083Z,92.22
2017-02-05T01:13:47.254Z,92.32
2017-02-05T01:14:13.431Z,92.03
2017-02-05T01:14:39.693Z,92.13
2017-02-05T01:15:05.821Z,91.94
2017-02-05T01:15:32.075Z,92.51
2017-02-05T01:15:58.337Z,92.61
2017-02-05T01:16:24.571Z,92.51
2017-02-05T01:16:50.822Z,92.61
2017-02-05T01:17:17.026Z,92.61
2017-02-05T01:17:43.218Z,93.08
2017-02-05T01:18:09.369Z,92.7
2017-02-05T01:18:35.494Z,92.99
2017-02-05T01:19:01.588Z,92.89
2017-02-05T01:19:27.782Z,92.99
2017-02-05T01:19:53.945Z,93.65
2017-02-05T01:20:20.099Z,94.32
2017-02-05T01:20:46.330Z,94.32
2017-02-05T01:21:12.525Z,94.7
2017-02-05T01:21:38.701Z,95.17
2017-02-05T01:22:04.876Z,95.46
2017-02-05T01:22:31.025Z,95.27
2017-02-05T01:22:57.195Z,95.08
2017-02-05T01:23:23.377Z,95.17
2017-02-05T01:23:49.613Z,95.27
2017-02-05T01:24:15.780Z,95.27
2017-02-05T01:24:41.999Z,95.17
2017-02-05T01:25:08.156Z,95.27
2017-02-05T01:25:34.319Z,95.46
2017-02-05T01:26:00.508Z,95.84
2017-02-05T01:26:26.618Z,96.6
2017-02-05T01:26:53.123Z,96.98
2017-02-05T01:27:19.623Z,96.79
2017-02-05T01:27:45.880Z,97.17
2017-02-05T01:28:12.200Z,97.08
2017-02-05T01:28:38.389Z,97.45
2017-02-05T01:29:04.534Z,97.08
2017-02-05T01:29:30.700Z,97.08
2017-02-05T01:29:58.123Z,96.26
2017-02-05T01:30:24.370Z,95.7
2017-02-05T01:30:50.509Z,95.7
2017-02-05T01:31:16.645Z,95.51
2017-02-05T01:31:42.784Z,95.12
2017-02-05T01:32:08.953Z,95.03
2017-02-05T01:32:35.074Z,94.93
2017-02-05T01:33:01.246Z,95.12
2017-02-05T01:33:27.438Z,95.12
2017-02-05T01:33:53.528Z,95.12
2017-02-05T01:34:19.878Z,95.32
2017-02-05T01:34:46.082Z,95.22
2017-02-05T01:35:12.270Z,95.51
2017-02-05T01:35:38.481Z,94.93
2017-02-05T01:36:04.695Z,95.03
2017-02-05T01:36:30.824Z,95.03
2017-02-05T01:36:57.002Z,94.93
2017-02-05T01:37:23.177Z,95.08
2017-02-05T01:37:49.263Z,95.08
2017-02-05T01:38:15.407Z,95.17
2017-02-05T01:38:41.559Z,95.08
2017-02-05T01:39:07.688Z,94.32
2017-02-05T01:39:33.809Z,94.89
2017-02-05T01:39:59.979Z,94.51
2017-02-05T01:40:26.143Z,94.79
2017-02-05T01:40:52.284Z,94.42
2017-02-05T01:41:18.438Z,94.42
2017-02-05T01:41:44.590Z,94.22
2017-02-05T01:42:10.808Z,94.13
2017-02-05T01:42:36.954Z,94.32
2017-02-05T01:43:03.116Z,94.51
2017-02-05T01:43:29.381Z,94.32
2017-02-05T01:43:55.491Z,94.13
2017-02-05T01:44:21.647Z,94.22
2017-02-05T01:44:47.787Z,94.32
2017-02-05T01:45:13.925Z,94.32
2017-02-05T01:45:40.134Z,94.42
2017-02-05T01:46:06.305Z,93.94
2017-02-05T01:46:32.488Z,93.46
2017-02-05T01:46:58.600Z,93.55
2017-02-05T01:47:24.758Z,93.75
2017-02-05T01:47:50.884Z,93.65
2017-02-05T01:48:17.094Z,93.94
2017-02-05T01:48:43.215Z,93.46
2017-02-05T01:49:09.322Z,93.94
2017-02-05T01:49:35.475Z,93.55
2017-02-05T01:50:01.630Z,93.84
2017-02-05T01:50:27.829Z,93.75
2017-02-05T01:50:53.970Z,93.75
2017-02-05T01:51:20.118Z,93.55
2017-02-05T01:51:46.241Z,93.55
2017-02-05T01:52:12.348Z,94.27
2017-02-05T01:52:38.484Z,94.37
2017-02-05T01:53:04.629Z,94.37
2017-02-05T01:53:30.820Z,94.08
2017-02-05T01:53:57.033Z,94.46
2017-02-05T01:54:23.201Z,94.32
2017-02-05T01:54:49.311Z,94.46
2017-02-05T01:55:15.502Z,94.37
2017-02-05T01:55:41.663Z,94.46
2017-02-05T01:56:07.850Z,94.27
2017-02-05T01:56:34.047Z,94.27
2017-02-05T01:57:00.156Z,94.18
2017-02-05T01:57:26.313Z,94.27
2017-02-05T01:57:52.535Z,94.27
2017-02-05T01:58:18.762Z,94.46
2017-02-05T01:58:44.912Z,94.37
2017-02-05T01:59:11.079Z,94.46
2017-02-05T01:59:37.296Z,94.46
2017-02-05T02:00:03.520Z,94.46
2017-02-05T02:00:29.646Z,94.37
2017-02-05T02:00:55.863Z,94.27
2017-02-05T02:01:22.002Z,94.46
2017-02-05T02:01:48.109Z,94.37
2017-02-05T02:02:14.291Z,93.99
2017-02-05T02:02:40.443Z,93.99
2017-02-05T02:03:06.594Z,94.27
2017-02-05T02:03:32.802Z,94.27
2017-02-05T02:03:58.976Z,94.56
2017-02-05T02:04:25.114Z,94.27
2017-02-05T02:04:51.281Z,94.08
2017-02-05T02:05:17.381Z,93.89
2017-02-05T02:05:43.546Z,94.27
2017-02-05T02:06:09.724Z,94.27
2017-02-05T02:06:35.871Z,94.46
2017-02-05T02:07:02.020Z,94.37
2017-02-05T02:07:28.181Z,94.56
2017-02-05T02:07:54.316Z,94.18
2017-02-05T02:08:20.476Z,93.99
2017-02-05T02:08:46.659Z,94.27
2017-02-05T02:09:12.846Z,94.46
2017-02-05T02:09:39.005Z,94.27
2017-02-05T02:10:05.136Z,94.74
2017-02-05T02:10:31.316Z,94.74
2017-02-05T02:10:57.468Z,94.74
2017-02-05T02:11:23.650Z,95.03
2017-02-05T02:11:49.813Z,94.74
2017-02-05T02:12:16.001Z,94.56
2017-02-05T02:12:42.177Z,94.56
2017-02-05T02:13:08.316Z,94.46
2017-02-05T02:13:34.466Z,94.27
2017-02-05T02:14:00.598Z,94.65
2017-02-05T02:14:26.788Z,94.74
2017-02-05T02:14:52.879Z,94.93
2017-02-05T02:15:19.073Z,95.22
2017-02-05T02:15:45.226Z,94.74
2017-02-05T02:16:11.370Z,95.12
2017-02-05T02:16:37.504Z,94.93
2017-02-05T02:17:03.645Z,95.12
2017-02-05T02:17:29.751Z,95.32
2017-02-05T02:17:55.906Z,95.22
2017-02-05T02:18:22.044Z,94.93
2017-02-05T02:18:48.221Z,95.03
2017-02-05T02:19:14.396Z,94.74
2017-02-05T02:19:40.572Z,94.27
2017-02-05T02:20:06.759Z,93.99
2017-02-05T02:20:32.922Z,94.27
2017-02-05T02:20:59.062Z,94.65
2017-02-05T02:21:25.216Z,94.56
2017-02-05T02:21:51.426Z,94.46
2017-02-05T02:22:17.596Z,94.93
2017-02-05T02:22:43.741Z,95.03
2017-02-05T02:23:09.876Z,95.51
2017-02-05T02:23:36.063Z,96.08
2017-02-05T02:24:02.253Z,95.22
2017-02-05T02:24:28.420Z,95.12
2017-02-05T02:24:54.574Z,95.32
2017-02-05T02:25:20.737Z,95.12
2017-02-05T02:25:46.907Z,95.41
2017-02-05T02:26:13.190Z,95.41
2017-02-05T02:26:39.333Z,95.22
2017-02-05T02:27:05.468Z,95.41
2017-02-05T02:27:31.620Z,95.32
2017-02-05T02:27:57.743Z,95.03
2017-02-05T02:28:23.896Z,94.93
2017-02-05T02:28:50.060Z,94.65
2017-02-05T02:29:16.219Z,95.41
2017-02-05T02:29:42.396Z,95.41
2017-02-05T02:30:08.559Z,95.51
2017-02-05T02:30:34.679Z,95.03
2017-02-05T02:31:00.909Z,94.74
2017-02-05T02:31:27.106Z,95.51
2017-02-05T02:31:53.245Z,94.93
2017-02-05T02:32:19.430Z,95.22
2017-02-05T02:32:45.597Z,95.51
2017-02-05T02:33:11.815Z,94.74
2017-02-05T02:33:38.017Z,95.03
2017-02-05T02:34:04.262Z,95.32
2017-02-05T02:34:30.469Z,95.22
2017-02-05T02:34:56.657Z,95.22
2017-02-05T02:35:22.857Z,95.22
2017-02-05T02:35:48.998Z,95.32
2017-02-05T02:36:15.198Z,95.03
2017-02-05T02:36:41.328Z,94.93
2017-02-05T02:37:07.489Z,95.03
2017-02-05T02:37:33.632Z,95.32
2017-02-05T02:37:59.787Z,95.32
2017-02-05T02:38:25.940Z,95.6
2017-02-05T02:38:52.123Z,94.93
2017-02-05T02:39:18.280Z,95.12
2017-02-05T02:39:44.418Z,95.12
2017-02-05T02:40:10.569Z,94.93
2017-02-05T02:40:36.717Z,95.12
2017-02-05T02:41:02.847Z,94.93
2017-02-05T02:41:28.999Z,95.12
2017-02-05T02:41:55.118Z,95.03
2017-02-05T02:42:21.249Z,94.84
2017-02-05T02:42:47.393Z,94.84
2017-02-05T02:43:13.527Z,94.46
2017-02-05T02:43:39.721Z,94.56
2017-02-05T02:44:05.896Z,94.46
2017-02-05T02:44:32.111Z,94.84
2017-02-05T02:44:58.302Z,94.84
2017-02-05T02:45:24.443Z,95.03
2017-02-05T02:45:50.547Z,95.12
2017-02-05T02:46:16.765Z,95.12
2017-02-05T02:46:42.913Z,95.22
2017-02-05T02:47:09.115Z,94.93
2017-02-05T02:47:35.279Z,95.12
2017-02-05T02:48:01.400Z,94.56
2017-02-05T02:48:27.552Z,94.65
2017-02-05T02:48:53.716Z,94.74
2017-02-05T02:49:19.896Z,94.84
2017-02-05T02:49:46.151Z,93.89
2017-02-05T02:50:12.337Z,94.27
2017-02-05T02:50:38.513Z,93.99
2017-02-05T02:51:04.673Z,94.46
2017-02-05T02:51:30.767Z,94.84
2017-02-05T02:51:56.943Z,94.74
2017-02-05T02:52:23.072Z,94.65
2017-02-05T02:52:49.184Z,94.46
2017-02-05T02:53:15.348Z,94.74
2017-02-05T02:53:41.575Z,94.27
2017-02-05T02:54:07.776Z,94.18
2017-02-05T02:54:33.867Z,94.37
2017-02-05T02:55:00.053Z,94.27
2017-02-05T02:55:26.218Z,94.46
2017-02-05T02:55:52.377Z,94.18
2017-02-05T02:56:18.528Z,94.18
2017-02-05T02:56:44.720Z,94.18
2017-02-05T02:57:10.861Z,94.46
2017-02-05T02:57:37.021Z,94.18
2017-02-05T02:58:03.160Z,93.7
2017-02-05T02:58:29.275Z,93.13
2017-02-05T02:58:55.402Z,92.75
2017-02-05T02:59:21.592Z,92.94
2017-02-05T02:59:47.681Z,93.04
2017-02-05T03:00:13.825Z,93.04
2017-02-05T03:00:40.009Z,93.23
2017-02-05T03:01:06.133Z,93.04
2017-02-05T03:01:32.302Z,93.99
2017-02-05T03:01:58.423Z,93.51
2017-02-05T03:02:24.623Z,93.32
2017-02-05T03:02:50.786Z,93.23
2017-02-05T03:03:16.931Z,93.13
2017-02-05T03:03:43.132Z,92.75
2017-02-05T03:04:09.297Z,92.46
2017-02-05T03:04:35.424Z,92.27
2017-02-05T03:05:01.545Z,92.08
2017-02-05T03:05:27.685Z,91.99
2017-02-05T03:05:53.896Z,91.99
2017-02-05T03:06:19.998Z,92.08
2017-02-05T03:06:46.178Z,91.71
2017-02-05T03:07:12.338Z,91.8
2017-02-05T03:07:38.512Z,92.08
2017-02-05T03:08:04.696Z,92.27
2017-02-05T03:08:30.869Z,91.89
2017-02-05T03:08:57.056Z,92.08
2017-02-05T03:09:23.248Z,92.27
2017-02-05T03:09:49.380Z,92.18
2017-02-05T03:10:15.508Z,92.41
2017-02-05T03:10:41.674Z,91.42
2017-02-05T03:11:07.818Z,91.13
2017-02-05T03:11:33.997Z,91.52
2017-02-05T03:12:00.160Z,91.23
2017-02-05T03:12:26.351Z,90.94
2017-02-05T03:12:52.479Z,90.94
2017-02-05T03:13:18.622Z,91.8
2017-02-05T03:13:44.745Z,91.71
2017-02-05T03:14:10.934Z,90.94
2017-02-05T03:14:37.077Z,91.42
2017-02-05T03:15:03.249Z,91.04
2017-02-05T03:15:29.408Z,90.94
2017-02-05T03:15:55.519Z,91.13
2017-02-05T03:16:21.668Z,91.42
2017-02-05T03:16:47.859Z,91.13
2017-02-05T03:17:14.042Z,91.33
2017-02-05T03:17:40.198Z,91.89
2017-02-05T03:18:06.382Z,91.89
2017-02-05T03:18:32.544Z,91.71
2017-02-05T03:18:58.735Z,91.33
2017-02-05T03:19:24.934Z,91.71
2017-02-05T03:19:51.073Z,91.71
2017-02-05T03:20:17.240Z,91.89
2017-02-05T03:20:43.387Z,91.42
2017-02-05T03:21:09.507Z,91.61
2017-02-05T03:21:35.666Z,90.94
2017-02-05T03:22:01.913Z,90.85
2017-02-05T03:22:28.049Z,91.61
2017-02-05T03:22:54.181Z,91.71
2017-02-05T03:23:20.357Z,91.61
2017-02-05T03:23:46.523Z,91.13
2017-02-05T03:24:12.691Z,91.61
2017-02-05T03:24:38.874Z,91.8
2017-02-05T03:25:05.027Z,91.71
2017-02-05T03:25:31.125Z,91.8
2017-02-05T03:25:57.248Z,91.89
2017-02-05T03:26:23.413Z,91.42
2017-02-05T03:26:49.566Z,91.61
2017-02-05T03:27:15.719Z,91.89
2017-02-05T03:27:41.923Z,91.33
2017-02-05T03:28:08.036Z,91.04
2017-02-05T03:28:34.195Z,91.13
2017-02-05T03:29:00.326Z,90.94
2017-02-05T03:29:26.469Z,91.8
2017-02-05T03:29:52.604Z,91.42
2017-02-05T03:30:18.778Z,91.61
2017-02-05T03:30:44.900Z,91.8
2017-02-05T03:31:11.083Z,91.61
2017-02-05T03:31:37.215Z,91.42
2017-02-05T03:32:03.388Z,91.89
2017-02-05T03:32:29.514Z,91.89
2017-02-05T03:32:55.739Z,90.85
2017-02-05T03:33:21.907Z,91.71
2017-02-05T03:33:48.029Z,91.52
2017-02-05T03:34:14.162Z,91.89
2017-02-05T03:34:40.317Z,92.27
2017-02-05T03:35:06.477Z,91.89
2017-02-05T03:35:32.645Z,92.27
2017-02-05T03:35:58.854Z,91.71
2017-02-05T03:36:25.052Z,92.27
2017-02-05T03:36:51.203Z,92.18
2017-02-05T03:37:17.382Z,91.8
2017-02-05T03:37:43.482Z,91.89
2017-02-05T03:38:09.639Z,92.08
2017-02-05T03:38:35.773Z,92.08
2017-02-05T03:39:01.949Z,92.08
2017-02-05T03:39:28.157Z,92.46
2017-02-05T03:39:54.348Z,92.56
2017-02-05T03:40:20.557Z,92.56
2017-02-05T03:40:46.712Z,92.85
2017-02-05T03:41:12.800Z,93.04
2017-02-05T03:41:38.929Z,92.66
2017-02-05T03:42:05.125Z,92.94
2017-02-05T03:42:31.235Z,92.66
2017-02-05T03:42:57.393Z,92.75
2017-02-05T03:43:23.522Z,92.56
2017-02-05T03:43:49.645Z,92.66
2017-02-05T03:44:15.815Z,92.75
2017-02-05T03:44:41.987Z,92.66
2017-02-05T03:45:08.083Z,92.56
2017-02-05T03:45:34.242Z,92.46
2017-02-05T03:46:00.386Z,92.85
2017-02-05T03:46:26.513Z,92.85
2017-02-05T03:46:52.655Z,92.46
2017-02-05T03:47:18.743Z,92.46
2017-02-05T03:47:44.949Z,92.66
2017-02-05T03:48:12.489Z,92.66
2017-02-05T03:48:38.613Z,92.37
2017-02-05T03:49:04.777Z,92.85
2017-02-05T03:49:30.892Z,92.66
2017-02-05T03:49:57.048Z,92.66
2017-02-05T03:50:23.255Z,92.66
2017-02-05T03:50:49.388Z,92.94
2017-02-05T03:51:15.575Z,92.85
2017-02-05T03:51:41.694Z,93.13
2017-02-05T03:52:07.849Z,93.23
2017-02-05T03:52:33.988Z,93.04
2017-02-05T03:53:00.175Z,93.23
2017-02-05T03:53:26.327Z,93.04
2017-02-05T03:53:52.553Z,93.32
2017-02-05T03:54:18.692Z,92.56
2017-02-05T03:54:44.798Z,92.66
2017-02-05T03:55:10.953Z,92.56
2017-02-05T03:55:37.056Z,92.56
2017-02-05T03:56:03.208Z,92.85
2017-02-05T03:56:29.403Z,92.56
2017-02-05T03:56:55.527Z,92.75
2017-02-05T03:57:21.758Z,92.46
2017-02-05T03:57:47.925Z,92.56
2017-02-05T03:58:14.118Z,92.66
2017-02-05T03:58:40.253Z,92.75
2017-02-05T03:59:06.430Z,92.56
2017-02-05T03:59:32.572Z,93.04
2017-02-05T03:59:58.757Z,92.75
2017-02-05T04:00:24.937Z,92.56
2017-02-05T04:00:51.055Z,92.56
2017-02-05T04:01:17.256Z,92.46
2017-02-05T04:01:43.418Z,92.56
2017-02-05T04:02:09.538Z,92.56
2017-02-05T04:02:35.698Z,92.66
2017-02-05T04:03:01.844Z,92.27
2017-02-05T04:03:28.034Z,92.27
2017-02-05T04:03:54.189Z,92.18
2017-02-05T04:04:20.371Z,92.08
2017-02-05T04:04:46.569Z,91.99
2017-02-05T04:05:12.751Z,92.08
2017-02-05T04:05:38.928Z,92.27
2017-02-05T04:06:05.081Z,92.18
2017-02-05T04:06:31.214Z,92.08
2017-02-05T04:06:57.374Z,92.08
2017-02-05T04:07:23.535Z,92.08
2017-02-05T04:07:49.708Z,91.89
2017-02-05T04:08:15.863Z,92.18
2017-02-05T04:08:42.015Z,91.99
2017-02-05T04:09:08.204Z,92.27
2017-02-05T04:09:34.333Z,92.08
2017-02-05T04:10:00.528Z,92.37
2017-02-05T04:10:26.663Z,92.46
2017-02-05T04:10:52.870Z,92.18
2017-02-05T04:11:19.022Z,92.66
2017-02-05T04:11:45.612Z,92.37
2017-02-05T04:12:11.701Z,92.27
2017-02-05T04:12:37.876Z,92.37
2017-02-05T04:13:04.025Z,92.08
2017-02-05T04:13:30.127Z,92.56
2017-02-05T04:13:56.321Z,93.04
2017-02-05T04:14:22.446Z,93.04
2017-02-05T04:14:48.660Z,92.56
2017-02-05T04:15:14.773Z,93.04
2017-02-05T04:15:40.920Z,93.04
2017-02-05T04:16:07.061Z,93.32
2017-02-05T04:16:33.229Z,93.41
2017-02-05T04:16:59.444Z,93.04
2017-02-05T04:17:25.611Z,93.32
2017-02-05T04:17:51.791Z,93.04
2017-02-05T04:18:17.932Z,93.27
2017-02-05T04:18:44.105Z,93.46
2017-02-05T04:19:10.289Z,93.65
2017-02-05T04:19:36.446Z,94.32
2017-02-05T04:20:02.564Z,94.32
2017-02-05T04:20:28.654Z,93.99
2017-02-05T04:20:54.852Z,94.18
2017-02-05T04:21:21.042Z,93.65
2017-02-05T04:21:47.208Z,94.42
2017-02-05T04:22:13.396Z,94.46
2017-02-05T04:22:39.493Z,94.32
2017-02-05T04:23:05.638Z,93.46
2017-02-05T04:23:31.767Z,94.03
2017-02-05T04:23:57.931Z,93.84
2017-02-05T04:24:24.090Z,94.13
2017-02-05T04:24:50.217Z,93.94
2017-02-05T04:25:16.373Z,94.32
2017-02-05T04:25:42.501Z,94.23
2017-02-05T04:26:08.676Z,94.03
2017-02-05T04:26:34.866Z,93.94
2017-02-05T04:27:01.036Z,94.03
2017-02-05T04:27:27.230Z,94.23
2017-02-05T04:27:53.362Z,93.84
2017-02-05T04:28:19.511Z,94.23
2017-02-05T04:28:45.598Z,94.32
2017-02-05T04:29:11.739Z,93.94
2017-02-05T04:29:37.868Z,94.32
2017-02-05T04:30:04.046Z,93.94
2017-02-05T04:30:30.194Z,94.23
2017-02-05T04:30:56.386Z,93.65
2017-02-05T04:31:22.521Z,93.37
2017-02-05T04:31:48.702Z,93.75
2017-02-05T04:32:14.875Z,93.75
2017-02-05T04:32:41.039Z,93.65
2017-02-05T04:33:07.222Z,93.65
2017-02-05T04:33:33.394Z,93.84
2017-02-05T04:33:59.527Z,93.84
2017-02-05T04:34:25.682Z,93.37
2017-02-05T04:34:51.819Z,93.75
2017-02-05T04:35:18.005Z,92.99
2017-02-05T04:35:44.124Z,93.18
2017-02-05T04:36:10.233Z,93.56
2017-02-05T04:36:36.333Z,92.71
2017-02-05T04:37:02.449Z,92.8
2017-02-05T04:37:28.632Z,92.71
2017-02-05T04:37:54.774Z,92.75
2017-02-05T04:38:20.883Z,92.61
2017-02-05T04:38:47.054Z,92.61
2017-02-05T04:39:13.210Z,92.8
2017-02-05T04:39:39.326Z,92.66
2017-02-05T04:40:05.477Z,92.66
2017-02-05T04:40:31.665Z,92.85
2017-02-05T04:40:57.785Z,92.66
2017-02-05T04:41:23.920Z,92.56
2017-02-05T04:41:50.142Z,92.37
2017-02-05T04:42:16.329Z,91.8
2017-02-05T04:42:42.516Z,92.37
2017-02-05T04:43:08.678Z,92.46
2017-02-05T04:43:34.868Z,91.99
2017-02-05T04:44:01.012Z,91.8
2017-02-05T04:44:27.231Z,91.8
2017-02-05T04:44:53.372Z,91.61
2017-02-05T04:45:19.533Z,91.33
2017-02-05T04:45:45.692Z,91.61
2017-02-05T04:46:11.834Z,91.13
2017-02-05T04:46:38.005Z,90.66
2017-02-05T04:47:04.150Z,90.28
2017-02-05T04:47:30.346Z,90.47
2017-02-05T04:47:56.470Z,90.47
2017-02-05T04:48:22.639Z,90.47
2017-02-05T04:48:48.829Z,90.47
2017-02-05T04:49:14.924Z,90.19
2017-02-05T04:49:41.010Z,90.19
2017-02-05T04:50:07.183Z,90.47
2017-02-05T04:50:33.312Z,90.37
2017-02-05T04:50:59.482Z,90.56
2017-02-05T04:51:25.609Z,90.66
2017-02-05T04:51:51.767Z,90.75
2017-02-05T04:52:17.890Z,90.19
2017-02-05T04:52:43.990Z,90.37
2017-02-05T04:53:10.105Z,90.47
2017-02-05T04:53:36.207Z,90.85
2017-02-05T04:54:02.333Z,90.56
2017-02-05T04:54:28.449Z,90.56
2017-02-05T04:54:54.631Z,90.19
2017-02-05T04:55:20.767Z,90.19
2017-02-05T04:55:46.847Z,89.71
2017-02-05T04:56:12.999Z,89.71
2017-02-05T04:56:39.134Z,90
2017-02-05T04:57:05.252Z,89.9
2017-02-05T04:57:31.377Z,89.71
2017-02-05T04:57:57.524Z,89.8
2017-02-05T04:58:23.688Z,90.75
2017-02-05T04:58:49.903Z,89.86
2017-02-05T04:59:16.044Z,90.09
2017-02-05T04:59:42.197Z,90.09
2017-02-05T05:00:08.369Z,89.9
2017-02-05T05:00:34.570Z,90.37
2017-02-05T05:01:00.692Z,90.56
2017-02-05T05:01:26.866Z,90.37
2017-02-05T05:01:53.040Z,90.28
2017-02-05T05:02:19.133Z,89.9
2017-02-05T05:02:45.292Z,89.8
2017-02-05T05:03:11.417Z,89.86
2017-02-05T05:03:37.611Z,89.8
2017-02-05T05:04:03.757Z,90
2017-02-05T05:04:29.930Z,89.23
2017-02-05T05:04:56.122Z,89.76
2017-02-05T05:05:22.266Z,89.71
2017-02-05T05:05:48.434Z,90
2017-02-05T05:06:14.594Z,89.9
2017-02-05T05:06:40.779Z,90
2017-02-05T05:07:06.935Z,90.19
2017-02-05T05:07:33.153Z,90.09
2017-02-05T05:07:59.278Z,89.9
2017-02-05T05:08:25.427Z,89.8
2017-02-05T05:08:51.560Z,89.9
2017-02-05T05:09:17.746Z,89.95
2017-02-05T05:09:43.857Z,90.19
2017-02-05T05:10:10.059Z,89.9
2017-02-05T05:10:36.224Z,90.09
2017-02-05T05:11:02.371Z,90.09
2017-02-05T05:11:28.498Z,89.42
2017-02-05T05:11:54.691Z,90.28
2017-02-05T05:12:20.806Z,89.33
2017-02-05T05:12:46.920Z,90.19
2017-02-05T05:13:13.059Z,90
2017-02-05T05:13:39.208Z,90.19
2017-02-05T05:14:05.356Z,89.61
2017-02-05T05:14:31.513Z,89.9
2017-02-05T05:14:57.637Z,89.8
2017-02-05T05:15:23.807Z,90
2017-02-05T05:15:49.898Z,89.61
2017-02-05T05:16:16.043Z,90.19
2017-02-05T05:16:42.213Z,90
2017-02-05T05:17:08.335Z,89.8
2017-02-05T05:17:34.475Z,90.09
2017-02-05T05:18:00.639Z,89.61
2017-02-05T05:18:26.833Z,89.9
2017-02-05T05:18:52.976Z,90.19
2017-02-05T05:19:19.134Z,90.09
2017-02-05T05:19:45.294Z,89.9
2017-02-05T05:20:11.416Z,89.9
2017-02-05T05:20:37.586Z,89.33
2017-02-05T05:21:03.720Z,89.52
2017-02-05T05:21:29.876Z,89.04
2017-02-05T05:21:56.033Z,88.85
2017-02-05T05:22:22.128Z,88.85
2017-02-05T05:22:48.310Z,89.61
2017-02-05T05:23:14.477Z,89.33
2017-02-05T05:23:40.608Z,89.42
2017-02-05T05:24:06.756Z,89.61
2017-02-05T05:24:32.894Z,89.52
2017-02-05T05:24:59.014Z,89.04
2017-02-05T05:25:25.169Z,89.04
2017-02-05T05:25:51.318Z,89.42
2017-02-05T05:26:17.497Z,89.14
2017-02-05T05:26:43.641Z,89.14
2017-02-05T05:27:09.769Z,89.61
2017-02-05T05:27:35.900Z,89.61
2017-02-05T05:28:02.015Z,89.52
2017-02-05T05:28:28.189Z,89.23
2017-02-05T05:28:54.305Z,89.61
2017-02-05T05:29:20.442Z,89.33
2017-02-05T05:29:46.560Z,89.14
2017-02-05T05:30:12.704Z,89.23
2017-02-05T05:30:38.893Z,89.33
2017-02-05T05:31:05.039Z,89.33
2017-02-05T05:31:31.184Z,89.61
2017-02-05T05:31:57.342Z,89.23
2017-02-05T05:32:23.475Z,89.42
2017-02-05T05:32:49.564Z,89.42
2017-02-05T05:33:15.746Z,89.52
2017-02-05T05:33:41.902Z,89.61
2017-02-05T05:34:08.067Z,89.8
2017-02-05T05:34:34.238Z,89.71
2017-02-05T05:35:00.468Z,88.95
2017-02-05T05:35:26.618Z,89.52
2017-02-05T05:35:52.798Z,89.52
2017-02-05T05:36:18.955Z,89.33
2017-02-05T05:36:45.129Z,89.23
2017-02-05T05:37:11.319Z,89.42
2017-02-05T05:37:37.483Z,90.19